createdAt,value
2019-01-31T00:00:34.688Z,96037.58
2019-01-31T00:03:01.992Z,96032.87
2019-01-31T00:05:28.761Z,96020.64
2019-01-31T00:07:55.696Z,96024.30
2019-01-31T00:10:22.422Z,96019.16
2019-01-31T00:12:49.424Z,96024.79
2019-01-31T00:15:16.047Z,96025.92
2019-01-31T00:17:43.100Z,96023.56
2019-01-31T00:20:10.140Z,96024.93
2019-01-31T00:22:36.941Z,96027.20
2019-01-31T00:25:04.418Z,96031.80
2019-01-31T00:27:31.134Z,96028.66
2019-01-31T00:29:58.117Z,96021.25
2019-01-31T00:32:24.858Z,96022.19
2019-01-31T00:34:51.665Z,96024.93
2019-01-31T00:37:18.548Z,96025.95
2019-01-31T00:39:45.421Z,96030.96
2019-01-31T00:42:12.181Z,96032.59
2019-01-31T00:44:38.786Z,96035.02
2019-01-31T00:47:05.642Z,96035.39
2019-01-31T00:49:32.703Z,96032.78
2019-01-31T00:52:00.657Z,96044.23
2019-01-31T00:54:30.309Z,96041.34
2019-01-31T00:56:57.769Z,96037.56
2019-01-31T00:59:25.393Z,96040.50
2019-01-31T01:01:52.889Z,96046.98
2019-01-31T01:04:19.870Z,96048.62
2019-01-31T01:06:46.793Z,96045.25
2019-01-31T01:09:13.440Z,96045.87
2019-01-31T01:11:41.584Z,96048.75
2019-01-31T01:14:08.225Z,96055.39
2019-01-31T01:16:34.849Z,96052.68
2019-01-31T01:19:01.634Z,96057.35
2019-01-31T01:21:28.412Z,96057.78
2019-01-31T01:23:55.154Z,96056.04
2019-01-31T01:26:22.002Z,96059.95
2019-01-31T01:28:48.877Z,96059.72
2019-01-31T01:31:15.799Z,96056.78
2019-01-31T01:33:42.404Z,96060.28
2019-01-31T01:36:09.083Z,96060.90
2019-01-31T01:38:35.671Z,96065.36
2019-01-31T01:41:02.709Z,96066.79
2019-01-31T01:43:29.413Z,96071.89
2019-01-31T01:45:56.093Z,96072.54
2019-01-31T01:48:22.773Z,96066.23
2019-01-31T01:50:49.717Z,96068.23
2019-01-31T01:53:16.708Z,96061.16
2019-01-31T01:55:44.137Z,96057.58
2019-01-31T01:58:10.879Z,96060.56
2019-01-31T02:00:37.531Z,96050.58
2019-01-31T02:03:04.223Z,96053.79
2019-01-31T02:05:31.559Z,96050.48
2019-01-31T02:07:58.592Z,96041.94
2019-01-31T02:10:25.663Z,96040.54
2019-01-31T02:12:52.519Z,96036.23
2019-01-31T02:15:19.475Z,96038.59
2019-01-31T02:17:46.296Z,96031.39
2019-01-31T02:20:19.513Z,96028.77
2019-01-31T02:22:45.087Z,96028.28
2019-01-31T02:25:12.031Z,96017.27
2019-01-31T02:27:38.951Z,96016.22
2019-01-31T02:30:05.863Z,96004.23
2019-01-31T02:32:32.550Z,96000.62
2019-01-31T02:34:59.479Z,96002.36
2019-01-31T02:37:26.314Z,95996.73
2019-01-31T02:39:53.318Z,96003.45
2019-01-31T02:42:21.791Z,96005.11
2019-01-31T02:44:50.511Z,96001.14
2019-01-31T02:47:19.209Z,96000.92
2019-01-31T02:49:46.173Z,95990.96
2019-01-31T02:52:15.066Z,95991.30
2019-01-31T02:54:42.287Z,95987.56
2019-01-31T02:57:09.064Z,95984.37
2019-01-31T02:59:37.573Z,95985.11
2019-01-31T03:02:05.197Z,95975.70
2019-01-31T03:04:32.649Z,95974.20
2019-01-31T03:06:59.352Z,95978.62
2019-01-31T03:09:26.201Z,95980.06
2019-01-31T03:11:53.468Z,95980.84
2019-01-31T03:14:21.282Z,95979.17
2019-01-31T03:16:49.286Z,95981.55
2019-01-31T03:19:17.805Z,95975.50
2019-01-31T03:21:45.727Z,95977.11
2019-01-31T03:24:13.231Z,95971.84
2019-01-31T03:26:42.081Z,95970.14
2019-01-31T03:29:09.977Z,95974.84
2019-01-31T03:31:37.546Z,95977.14
2019-01-31T03:34:04.959Z,95977.36
2019-01-31T03:36:32.047Z,95977.83
2019-01-31T03:38:58.917Z,95983.38
2019-01-31T03:41:26.376Z,95980.28
2019-01-31T03:43:53.352Z,95987.21
2019-01-31T03:46:20.268Z,95984.91
2019-01-31T03:48:47.595Z,95985.56
2019-01-31T03:51:15.955Z,95982.86
2019-01-31T03:53:42.650Z,95984.92
2019-01-31T03:56:09.447Z,95991.06
2019-01-31T03:58:36.497Z,95987.78
2019-01-31T04:01:03.616Z,95997.41
2019-01-31T04:03:32.555Z,96004.24
2019-01-31T04:05:59.773Z,96010.23
2019-01-31T04:11:02.080Z,95997.70
2019-01-31T04:13:28.961Z,95997.36
2019-01-31T04:15:55.752Z,96002.55
2019-01-31T04:18:22.753Z,96001.35
2019-01-31T04:20:51.139Z,95995.65
2019-01-31T04:23:17.967Z,95999.59
2019-01-31T04:25:46.071Z,95993.06
2019-01-31T04:28:12.849Z,95997.10
2019-01-31T04:30:40.128Z,96001.41
2019-01-31T04:33:06.968Z,96004.66
2019-01-31T04:35:33.883Z,96002.14
2019-01-31T04:38:00.800Z,96001.84
2019-01-31T04:40:31.571Z,96000.73
2019-01-31T04:42:55.995Z,95998.33
2019-01-31T04:45:22.940Z,96000.27
2019-01-31T04:47:49.592Z,95997.64
2019-01-31T04:50:16.474Z,96001.58
2019-01-31T04:52:43.195Z,95995.02
2019-01-31T04:55:10.134Z,95998.06
2019-01-31T04:57:37.041Z,96000.62
2019-01-31T05:00:03.744Z,95999.67
2019-01-31T05:02:30.379Z,95999.05
2019-01-31T05:04:57.145Z,95998.06
2019-01-31T05:07:24.384Z,95999.25
2019-01-31T05:09:51.264Z,96005.58
2019-01-31T05:12:18.589Z,96004.00
2019-01-31T05:14:46.672Z,96005.64
2019-01-31T05:17:13.606Z,96008.20
2019-01-31T05:19:40.488Z,96006.97
2019-01-31T05:22:07.357Z,96009.53
2019-01-31T05:24:34.258Z,96014.22
2019-01-31T05:27:00.855Z,96013.75
2019-01-31T05:29:27.473Z,96020.73
2019-01-31T05:31:54.126Z,96019.92
2019-01-31T05:34:20.800Z,96023.48
2019-01-31T05:36:47.464Z,96022.23
2019-01-31T05:39:14.193Z,96025.86
2019-01-31T05:41:40.900Z,96024.27
2019-01-31T05:44:07.666Z,96024.78
2019-01-31T05:46:35.570Z,96021.54
2019-01-31T05:49:02.258Z,96022.17
2019-01-31T05:51:28.971Z,96021.97
2019-01-31T05:53:55.994Z,96027.16
2019-01-31T05:56:23.033Z,96022.31
2019-01-31T05:58:49.780Z,96020.72
2019-01-31T06:01:17.282Z,96026.54
2019-01-31T06:03:43.947Z,96032.06
2019-01-31T06:06:11.477Z,96026.54
2019-01-31T06:08:39.126Z,96023.63
2019-01-31T06:11:07.626Z,96026.53
2019-01-31T06:13:34.443Z,96027.99
2019-01-31T06:16:01.092Z,96035.94
2019-01-31T06:18:27.994Z,96032.38
2019-01-31T06:20:54.638Z,96042.38
2019-01-31T06:23:21.257Z,96040.13
2019-01-31T06:25:52.577Z,96044.20
2019-01-31T06:28:22.824Z,96044.71
2019-01-31T06:30:50.906Z,96048.91
2019-01-31T06:33:28.207Z,96044.55
2019-01-31T06:38:38.441Z,96057.31
2019-01-31T06:41:05.504Z,96056.84
2019-01-31T06:43:32.499Z,96055.70
2019-01-31T06:45:59.845Z,96060.39
2019-01-31T06:48:34.157Z,96051.00
2019-01-31T06:50:56.180Z,96063.00
2019-01-31T06:53:25.063Z,96063.31
2019-01-31T06:55:51.954Z,96066.05
2019-01-31T06:58:18.712Z,96065.41
2019-01-31T07:00:45.759Z,96068.82
2019-01-31T07:03:13.037Z,96063.00
2019-01-31T07:05:39.765Z,96068.33
2019-01-31T07:08:07.098Z,96079.33
2019-01-31T07:10:35.380Z,96071.26
2019-01-31T07:13:02.125Z,96066.23
2019-01-31T07:15:29.623Z,96071.58
2019-01-31T07:17:57.095Z,96066.87
2019-01-31T07:20:24.013Z,96074.14
2019-01-31T07:22:51.114Z,96077.19
2019-01-31T07:25:18.473Z,96082.05
2019-01-31T07:27:45.181Z,96079.45
2019-01-31T07:30:12.293Z,96082.21
2019-01-31T07:32:39.321Z,96080.24
2019-01-31T07:35:06.904Z,96085.05
2019-01-31T07:37:33.542Z,96079.89
2019-01-31T07:40:00.983Z,96088.33
2019-01-31T07:42:31.495Z,96090.73
2019-01-31T07:44:58.291Z,96091.17
2019-01-31T07:47:25.297Z,96092.58
2019-01-31T07:49:53.099Z,96095.45
2019-01-31T07:52:21.152Z,96092.77
2019-01-31T07:54:48.751Z,96096.75
2019-01-31T07:57:15.675Z,96108.42
2019-01-31T07:59:43.517Z,96101.94
2019-01-31T08:02:11.777Z,96105.22
2019-01-31T08:04:45.828Z,96098.04
2019-01-31T08:07:12.446Z,96100.72
2019-01-31T08:09:39.540Z,96105.22
2019-01-31T08:12:06.493Z,96100.79
2019-01-31T08:14:33.444Z,96108.26
2019-01-31T08:17:00.169Z,96106.68
2019-01-31T08:19:26.763Z,96107.06
2019-01-31T08:21:53.556Z,96118.16
2019-01-31T08:24:20.520Z,96122.31
2019-01-31T08:26:48.722Z,96117.48
2019-01-31T08:29:15.686Z,96124.38
2019-01-31T08:31:42.441Z,96121.98
2019-01-31T08:34:09.166Z,96124.39
2019-01-31T08:36:35.806Z,96125.88
2019-01-31T08:39:02.776Z,96126.08
2019-01-31T08:41:29.508Z,96114.61
2019-01-31T08:43:56.519Z,96117.23
2019-01-31T08:46:23.376Z,96120.03
2019-01-31T08:48:50.232Z,96119.69
2019-01-31T08:51:17.058Z,96111.95
2019-01-31T08:53:43.994Z,96116.56
2019-01-31T08:56:10.712Z,96113.69
2019-01-31T08:58:37.419Z,96117.93
2019-01-31T09:01:04.178Z,96121.77
2019-01-31T09:03:31.251Z,96124.58
2019-01-31T09:05:58.168Z,96120.75
2019-01-31T09:08:24.816Z,96130.97
2019-01-31T09:10:51.426Z,96129.47
2019-01-31T09:13:19.797Z,96130.05
2019-01-31T09:15:46.492Z,96128.08
2019-01-31T09:18:13.329Z,96122.51
2019-01-31T09:20:40.056Z,96128.22
2019-01-31T09:23:07.260Z,96130.73
2019-01-31T09:25:33.915Z,96139.75
2019-01-31T09:28:00.731Z,96139.31
2019-01-31T09:30:27.652Z,96143.45
2019-01-31T09:32:54.554Z,96148.20
2019-01-31T09:35:21.452Z,96150.64
2019-01-31T09:37:49.493Z,96149.73
2019-01-31T09:40:41.628Z,96149.30
2019-01-31T09:43:08.325Z,96155.53
2019-01-31T09:45:35.418Z,96148.20
2019-01-31T09:48:02.087Z,96147.23
2019-01-31T09:50:28.928Z,96146.16
2019-01-31T09:52:56.374Z,96146.36
2019-01-31T09:55:23.071Z,96149.99
2019-01-31T09:57:50.380Z,96148.89
2019-01-31T10:00:27.226Z,96143.14
2019-01-31T10:02:45.404Z,96140.03
2019-01-31T10:05:12.164Z,96135.98
2019-01-31T10:07:39.150Z,96135.06
2019-01-31T10:10:06.257Z,96131.38
2019-01-31T10:12:38.213Z,96120.91
2019-01-31T10:15:01.680Z,96130.87
2019-01-31T10:17:28.388Z,96128.48
2019-01-31T10:19:55.771Z,96128.30
2019-01-31T10:22:22.521Z,96120.27
2019-01-31T10:24:50.942Z,96119.51
2019-01-31T10:27:17.595Z,96116.36
2019-01-31T10:29:44.380Z,96113.55
2019-01-31T10:32:11.039Z,96114.89
2019-01-31T10:34:37.696Z,96117.80
2019-01-31T10:37:04.527Z,96108.72
2019-01-31T10:42:04.059Z,96102.35
2019-01-31T10:44:33.667Z,96099.88
2019-01-31T10:47:01.880Z,96101.51
2019-01-31T10:49:31.028Z,96099.42
2019-01-31T10:51:58.303Z,96100.15
2019-01-31T10:54:25.272Z,96095.38
2019-01-31T10:56:51.979Z,96093.00
2019-01-31T10:59:21.649Z,96097.20
2019-01-31T11:01:48.284Z,96094.72
2019-01-31T11:04:14.929Z,96098.30
2019-01-31T11:06:41.821Z,96091.63
2019-01-31T11:09:08.485Z,96097.38
2019-01-31T11:11:35.532Z,96089.41
2019-01-31T11:14:02.152Z,96089.13
2019-01-31T11:16:29.282Z,96089.09
2019-01-31T11:18:56.081Z,96082.38
2019-01-31T11:21:22.754Z,96083.69
2019-01-31T11:23:50.649Z,96079.53
2019-01-31T11:26:17.371Z,96077.61
2019-01-31T11:28:44.282Z,96076.16
2019-01-31T11:31:11.199Z,96079.30
2019-01-31T11:33:38.118Z,96075.06
2019-01-31T11:36:04.747Z,96074.94
2019-01-31T11:38:31.408Z,96071.13
2019-01-31T11:40:58.434Z,96070.33
2019-01-31T11:43:25.326Z,96078.75
2019-01-31T11:45:52.077Z,96069.96
2019-01-31T11:48:18.832Z,96076.63
2019-01-31T11:50:45.572Z,96069.06
2019-01-31T11:53:12.548Z,96071.37
2019-01-31T11:55:39.767Z,96066.87
2019-01-31T11:58:06.610Z,96070.58
2019-01-31T12:00:33.576Z,96072.04
2019-01-31T12:03:00.641Z,96066.80
2019-01-31T12:05:27.248Z,96070.50
2019-01-31T12:07:53.848Z,96073.05
2019-01-31T12:10:22.312Z,96073.05
2019-01-31T12:12:48.892Z,96075.78
2019-01-31T12:15:15.854Z,96075.38
2019-01-31T12:17:42.784Z,96071.77
2019-01-31T12:20:09.693Z,96068.06
2019-01-31T12:22:36.470Z,96070.45
2019-01-31T12:25:03.424Z,96069.75
2019-01-31T12:27:30.178Z,96064.86
2019-01-31T12:29:57.069Z,96064.18
2019-01-31T12:32:24.127Z,96055.56
2019-01-31T12:34:52.595Z,96051.00
2019-01-31T12:37:19.288Z,96052.52
2019-01-31T12:39:52.670Z,96054.95
2019-01-31T12:42:16.888Z,96056.34
2019-01-31T12:44:43.507Z,96054.92
2019-01-31T12:47:10.302Z,96044.89
2019-01-31T12:49:39.468Z,96045.19
2019-01-31T12:52:07.857Z,96041.96
2019-01-31T12:54:37.267Z,96036.75
2019-01-31T12:57:05.025Z,96029.58
2019-01-31T12:59:34.707Z,96029.19
2019-01-31T13:02:03.803Z,96035.23
2019-01-31T13:04:30.890Z,96028.40
2019-01-31T13:07:01.526Z,96029.10
2019-01-31T13:09:31.805Z,96028.89
2019-01-31T13:12:01.256Z,96023.77
2019-01-31T13:14:30.305Z,96019.52
2019-01-31T13:16:57.004Z,96015.41
2019-01-31T13:19:27.395Z,96018.33
2019-01-31T13:21:54.182Z,96013.47
2019-01-31T13:24:32.888Z,96010.42
2019-01-31T13:27:02.021Z,96017.38
2019-01-31T13:29:29.084Z,96020.00
2019-01-31T13:31:57.077Z,96017.92
2019-01-31T13:34:24.659Z,96015.20
2019-01-31T13:36:51.869Z,96013.17
2019-01-31T13:39:19.939Z,96019.60
2019-01-31T13:41:47.960Z,96016.38
2019-01-31T13:44:21.951Z,96015.72
2019-01-31T13:46:53.815Z,96017.78
2019-01-31T13:49:19.208Z,96017.27
2019-01-31T13:51:49.557Z,96022.80
2019-01-31T13:57:14.386Z,96028.92
2019-01-31T13:59:44.425Z,96029.42
2019-01-31T14:02:16.250Z,96024.28
2019-01-31T14:07:30.124Z,96026.78
2019-01-31T14:09:57.917Z,96020.02
2019-01-31T14:12:25.870Z,96016.78
2019-01-31T14:14:59.165Z,96016.22
2019-01-31T14:17:26.867Z,96020.17
2019-01-31T14:19:54.974Z,96022.48
2019-01-31T14:22:22.012Z,96021.05
2019-01-31T14:24:48.690Z,96028.11
2019-01-31T14:27:20.070Z,96028.20
2019-01-31T14:29:49.748Z,96034.75
2019-01-31T14:35:06.447Z,96034.81
2019-01-31T14:37:34.231Z,96036.45
2019-01-31T14:40:03.267Z,96029.81
2019-01-31T14:42:31.193Z,96023.02
2019-01-31T14:45:02.026Z,96029.08
2019-01-31T14:47:29.939Z,96033.17
2019-01-31T14:50:01.472Z,96026.94
2019-01-31T14:52:28.483Z,96027.27
2019-01-31T14:54:55.982Z,96027.75
2019-01-31T14:57:27.301Z,96041.96
2019-01-31T14:59:54.505Z,96044.95
2019-01-31T15:02:21.202Z,96037.85
2019-01-31T15:04:48.383Z,96041.66
2019-01-31T15:07:15.174Z,96034.97
2019-01-31T15:09:42.286Z,96033.41
2019-01-31T15:12:09.417Z,96038.79
2019-01-31T15:14:38.034Z,96045.69
2019-01-31T15:17:05.033Z,96046.33
2019-01-31T15:19:32.420Z,96047.03
2019-01-31T15:21:59.605Z,96045.61
2019-01-31T15:24:26.574Z,96052.16
2019-01-31T15:26:54.808Z,96050.41
2019-01-31T15:29:21.733Z,96048.75
2019-01-31T15:31:48.818Z,96049.48
2019-01-31T15:34:15.696Z,96049.86
2019-01-31T15:36:43.072Z,96050.88
2019-01-31T15:39:09.965Z,96051.08
2019-01-31T15:41:36.930Z,96055.90
2019-01-31T15:44:04.054Z,96057.76
2019-01-31T15:46:31.006Z,96063.22
2019-01-31T15:48:57.849Z,96065.95
2019-01-31T15:51:25.173Z,96061.65
2019-01-31T15:53:51.859Z,96059.84
2019-01-31T15:56:18.951Z,96063.19
2019-01-31T15:58:45.943Z,96064.26
2019-01-31T16:01:12.649Z,96066.19
2019-01-31T16:03:39.524Z,96068.53
2019-01-31T16:06:07.217Z,96060.91
2019-01-31T16:08:34.188Z,96063.43
2019-01-31T16:11:02.290Z,96062.35
2019-01-31T16:13:29.204Z,96066.61
2019-01-31T16:15:56.224Z,96067.87
2019-01-31T16:18:23.318Z,96066.80
2019-01-31T16:20:50.277Z,96067.77
2019-01-31T16:23:17.508Z,96069.44
2019-01-31T16:25:47.462Z,96077.04
2019-01-31T16:28:12.850Z,96080.05
2019-01-31T16:30:39.681Z,96078.70
2019-01-31T16:33:06.690Z,96086.75
2019-01-31T16:35:33.704Z,96092.77
2019-01-31T16:38:00.633Z,96093.14
2019-01-31T16:40:27.627Z,96089.91
2019-01-31T16:42:56.036Z,96084.08
2019-01-31T16:45:22.715Z,96080.84
2019-01-31T16:47:49.408Z,96086.84
2019-01-31T16:50:16.274Z,96084.13
2019-01-31T16:52:44.059Z,96087.30
2019-01-31T16:55:13.288Z,96091.45
2019-01-31T16:57:39.938Z,96097.42
2019-01-31T17:00:06.911Z,96100.63
2019-01-31T17:02:33.950Z,96099.36
2019-01-31T17:05:00.943Z,96098.94
2019-01-31T17:07:28.023Z,96091.37
2019-01-31T17:09:56.386Z,96091.36
2019-01-31T17:12:23.069Z,96092.48
2019-01-31T17:14:50.081Z,96095.70
2019-01-31T17:17:17.107Z,96097.71
2019-01-31T17:19:44.089Z,96103.95
2019-01-31T17:22:11.082Z,96100.73
2019-01-31T17:24:37.706Z,96109.55
2019-01-31T17:27:04.347Z,96108.06
2019-01-31T17:29:31.510Z,96111.42
2019-01-31T17:31:58.622Z,96114.00
2019-01-31T17:34:25.631Z,96113.16
2019-01-31T17:36:52.627Z,96104.53
2019-01-31T17:39:19.576Z,96100.17
2019-01-31T17:41:46.556Z,96096.44
2019-01-31T17:44:13.230Z,96100.44
2019-01-31T17:46:40.192Z,96104.58
2019-01-31T17:49:06.875Z,96109.30
2019-01-31T17:51:34.051Z,96101.94
2019-01-31T17:54:01.818Z,96106.44
2019-01-31T17:56:28.878Z,96108.74
2019-01-31T17:58:55.854Z,96110.59
2019-01-31T18:01:22.806Z,96120.82
2019-01-31T18:03:49.553Z,96113.04
2019-01-31T18:06:18.843Z,96108.83
2019-01-31T18:08:45.082Z,96107.98
2019-01-31T18:11:14.015Z,96115.68
2019-01-31T18:13:40.965Z,96109.30
2019-01-31T18:16:09.786Z,96120.32
2019-01-31T18:18:36.505Z,96118.12
2019-01-31T18:21:03.164Z,96115.34
2019-01-31T18:23:30.092Z,96119.69
2019-01-31T18:25:56.727Z,96127.72
2019-01-31T18:28:23.408Z,96127.16
2019-01-31T18:30:50.320Z,96125.75
2019-01-31T18:33:17.186Z,96127.98
2019-01-31T18:35:43.865Z,96133.86
2019-01-31T18:38:12.962Z,96128.95
2019-01-31T18:40:39.667Z,96132.97
2019-01-31T18:43:06.369Z,96139.72
2019-01-31T18:45:33.376Z,96143.95
2019-01-31T18:48:02.589Z,96143.09
2019-01-31T18:50:31.271Z,96146.41
2019-01-31T18:52:58.417Z,96153.12
2019-01-31T18:55:31.059Z,96151.25
2019-01-31T18:58:02.207Z,96155.20
2019-01-31T19:00:29.690Z,96156.27
2019-01-31T19:02:56.734Z,96159.36
2019-01-31T19:05:23.675Z,96154.64
2019-01-31T19:07:50.649Z,96150.56
2019-01-31T19:10:17.339Z,96150.63
2019-01-31T19:12:43.975Z,96142.91
2019-01-31T19:15:10.855Z,96139.20
2019-01-31T19:17:37.799Z,96140.50
2019-01-31T19:20:04.759Z,96147.53
2019-01-31T19:25:03.452Z,96143.44
2019-01-31T19:27:30.069Z,96141.77
2019-01-31T19:29:56.986Z,96140.44
2019-01-31T19:32:23.976Z,96145.86
2019-01-31T19:34:50.994Z,96139.62
2019-01-31T19:37:17.992Z,96141.75
2019-01-31T19:39:44.616Z,96140.22
2019-01-31T19:42:11.586Z,96129.95
2019-01-31T19:44:38.288Z,96131.84
2019-01-31T19:47:05.142Z,96126.03
2019-01-31T19:49:32.035Z,96122.31
2019-01-31T19:51:58.665Z,96125.02
2019-01-31T19:54:26.656Z,96120.67
2019-01-31T19:56:53.489Z,96119.18
2019-01-31T19:59:20.555Z,96125.00
2019-01-31T20:01:47.642Z,96125.00
2019-01-31T20:04:14.492Z,96122.44
2019-01-31T20:06:41.464Z,96115.73
2019-01-31T20:09:08.693Z,96115.66
2019-01-31T20:11:35.715Z,96109.71
2019-01-31T20:14:02.907Z,96112.39
2019-01-31T20:16:29.648Z,96112.34
2019-01-31T20:18:57.193Z,96116.05
2019-01-31T20:21:23.907Z,96117.30
2019-01-31T20:23:50.640Z,96122.90
2019-01-31T20:26:17.459Z,96122.33
2019-01-31T20:28:44.258Z,96126.94
2019-01-31T20:31:10.926Z,96134.63
2019-01-31T20:33:37.908Z,96142.67
2019-01-31T20:36:04.584Z,96147.16
2019-01-31T20:38:34.218Z,96141.45
2019-01-31T20:41:04.356Z,96142.77
2019-01-31T20:43:34.360Z,96142.20
2019-01-31T20:46:12.545Z,96143.94
2019-01-31T20:48:39.505Z,96147.78
2019-01-31T20:51:08.541Z,96150.51
2019-01-31T20:53:35.825Z,96153.38
2019-01-31T20:56:07.475Z,96152.39
2019-01-31T20:58:34.963Z,96147.60
2019-01-31T21:03:50.467Z,96150.77
2019-01-31T21:06:20.952Z,96153.07
2019-01-31T21:08:48.839Z,96151.99
2019-01-31T21:11:15.579Z,96153.75
2019-01-31T21:13:47.399Z,96152.48
2019-01-31T21:16:15.847Z,96145.17
2019-01-31T21:18:43.070Z,96151.20
2019-01-31T21:21:14.101Z,96147.72
2019-01-31T21:23:42.185Z,96135.56
2019-01-31T21:26:09.335Z,96130.34
2019-01-31T21:28:38.503Z,96127.66
2019-01-31T21:31:06.987Z,96127.53
2019-01-31T21:33:34.606Z,96117.30
2019-01-31T21:36:02.972Z,96117.19
2019-01-31T21:38:36.119Z,96116.42
2019-01-31T21:41:16.890Z,96126.65
2019-01-31T21:43:40.930Z,96113.50
2019-01-31T21:46:07.564Z,96114.70
2019-01-31T21:48:41.181Z,96114.81
2019-01-31T21:51:08.363Z,96109.97
2019-01-31T21:53:49.892Z,96104.86
2019-01-31T21:56:16.879Z,96105.16
2019-01-31T21:58:48.531Z,96105.70
2019-01-31T22:01:17.221Z,96110.77
2019-01-31T22:03:44.137Z,96107.37
2019-01-31T22:06:21.925Z,96111.56
2019-01-31T22:08:39.484Z,96119.48
2019-01-31T22:11:06.068Z,96119.09
2019-01-31T22:13:32.746Z,96116.73
2019-01-31T22:16:01.003Z,96124.24
2019-01-31T22:18:27.741Z,96116.42
2019-01-31T22:20:54.771Z,96119.91
2019-01-31T22:23:21.737Z,96127.41
2019-01-31T22:25:48.939Z,96124.67
2019-01-31T22:28:15.919Z,96129.38
2019-01-31T22:30:43.288Z,96131.26
2019-01-31T22:33:09.922Z,96139.59
2019-01-31T22:35:36.914Z,96140.03
2019-01-31T22:38:03.548Z,96136.79
2019-01-31T22:40:31.475Z,96134.67
2019-01-31T22:42:58.195Z,96138.22
2019-01-31T22:45:25.055Z,96128.11
2019-01-31T22:47:51.720Z,96124.13
2019-01-31T22:50:18.684Z,96124.95
2019-01-31T22:52:45.523Z,96123.69
2019-01-31T22:55:12.536Z,96116.50
2019-01-31T22:57:39.239Z,96124.12
2019-01-31T23:00:06.076Z,96117.26
2019-01-31T23:02:39.451Z,96110.66
2019-01-31T23:05:06.162Z,96109.91
2019-01-31T23:07:32.829Z,96103.91
2019-01-31T23:09:59.790Z,96100.42
2019-01-31T23:14:58.177Z,96095.66
2019-01-31T23:17:25.032Z,96094.67
2019-01-31T23:19:51.987Z,96101.72
2019-01-31T23:22:18.669Z,96099.86
2019-01-31T23:24:45.353Z,96103.27
2019-01-31T23:27:12.216Z,96098.69
2019-01-31T23:29:39.247Z,96101.11
2019-01-31T23:32:06.132Z,96099.75
2019-01-31T23:34:32.863Z,96100.59
2019-01-31T23:36:59.553Z,96103.48
2019-01-31T23:39:26.439Z,96102.09
2019-01-31T23:41:53.547Z,96100.69
2019-01-31T23:44:20.562Z,96108.27
2019-01-31T23:46:47.492Z,96107.89
2019-01-31T23:49:14.494Z,96105.73
2019-01-31T23:51:41.153Z,96110.50
2019-01-31T23:54:07.822Z,96110.46
2019-01-31T23:56:34.650Z,96105.95
2019-01-31T23:59:03.139Z,96095.94
